Data for 07/01/2014

Time Sea-Level Adjusted Pressure Absolute Pressure Temperature Relative Humidity Dew Point   
(mb) (inHg) (mb) (inHg) (C) (F) (%) (C) (F)
00:05 1025 30.27 854 25.22 10.4 50.8 61 3.3 37.9
00:10 1025 30.27 854 25.22 10.3 50.5 62 3.3 38
00:15 1025 30.27 854 25.22 10.2 50.3 62 3.3 38
00:20 1025 30.27 854 25.22 10.1 50.2 62 3.2 37.8
00:25 1025 30.27 854 25.22 10.1 50.3 62 3.2 37.7
00:30 1025 30.27 854 25.22 10.2 50.4 61 3.1 37.6
00:35 1025 30.27 854 25.22 10.4 50.7 60 3 37.5
00:40 1025 30.27 854 25.22 10.4 50.7 61 3.1 37.6
00:45 1025 30.27 854 25.22 10.2 50.4 61 3.1 37.6
00:50 1025 30.27 854 25.22 10.1 50.2 61 3 37.4
00:55 1025 30.27 854 25.22 10.2 50.4 61 3 37.3
01:00 1025 30.27 854 25.22 10.5 50.9 59 2.8 37.1
01:05 1025 30.27 854 25.22 10.5 50.9 59 2.8 37.1
01:10 1025 30.27 854 25.22 10.8 51.5 57 2.7 36.9
01:15 1025 30.27 854 25.22 10.9 51.5 59 3.1 37.6
01:20 1025 30.27 854 25.22 10.5 50.9 60 3.2 37.7
01:25 1025 30.27 854 25.22 10.1 50.3 61 3 37.4
01:30 1025 30.27 854 25.22 10.1 50.2 61 2.9 37.3
01:35 1025 30.27 854 25.22 10.1 50.1 61 3 37.4
01:40 1025 30.27 854 25.22 9.9 49.8 62 2.9 37.2
01:45 1025 30.27 854 25.22 10 50 61 2.8 37.1
01:50 1025 30.27 854 25.22 10 50.1 61 2.8 37
01:55 1025 30.27 854 25.22 10 49.9 62 2.9 37.3
02:00 1025 30.27 854 25.22 9.9 49.8 62 2.9 37.2
02:05 1025 30.27 854 25.22 9.8 49.6 62 2.9 37.3
02:10 1025 30.27 854 25.22 9.5 49.1 64 3.2 37.7
02:15 1025 30.27 854 25.22 9.2 48.6 64 2.9 37.3
02:20 1025 30.27 854 25.22 9.4 48.9 64 3 37.4
02:25 1025 30.27 854 25.22 9.4 48.9 65 3.1 37.5
02:30 1025 30.27 854 25.22 9.3 48.7 65 3 37.4
02:35 1025 30.27 854 25.22 9.3 48.8 64 2.9 37.3
02:40 1025 30.27 854 25.22 9.5 49.2 63 3 37.3
02:45 1025 30.27 854 25.22 9.5 49.2 63 3 37.3
02:50 1025 30.27 854 25.22 9.5 49.1 64 3 37.5
02:55 1025 30.27 854 25.22 9.4 48.9 65 3.1 37.5
03:00 1025 30.27 854 25.22 9.2 48.6 65 3.1 37.5
03:05 1025 30.27 854 25.22 9.1 48.4 66 3.1 37.5
03:10 1025 30.27 854 25.22 9.1 48.3 66 3.1 37.5
03:15 1025 30.27 854 25.22 9 48.1 67 3.1 37.6
03:20 1025 30.27 854 25.22 8.9 48 67 3 37.5
03:25 1025 30.27 854 25.22 8.9 48 67 3.1 37.5
03:30 1025 30.27 854 25.22 9.1 48.3 65 2.8 37
03:35 1025 30.27 854 25.22 9.5 49 64 2.9 37.3
03:40 1025 30.27 854 25.22 9.5 49.1 64 3.1 37.5
03:45 1025 30.27 854 25.22 9.3 48.8 65 3.1 37.6
03:50 1025 30.27 854 25.22 9.1 48.4 66 3.2 37.8
03:55 1025 30.27 854 25.22 8.9 48 67 3.1 37.7
04:00 1025 30.27 854 25.22 8.8 47.8 68 3.1 37.7
04:05 1025 30.27 854 25.22 8.8 47.9 67 3 37.4
04:10 1025 30.27 854 25.22 9 48.3 65 2.9 37.2
04:15 1025 30.27 854 25.22 9.3 48.7 65 3 37.5
04:20 1025 30.27 854 25.22 9.3 48.8 65 3.1 37.6
04:25 1025 30.27 854 25.22 9.2 48.6 65 3.1 37.6
04:30 1025 30.27 854 25.22 9.3 48.7 65 3.2 37.7
04:35 1025 30.27 854 25.22 9.2 48.6 65 3.1 37.6
04:40 1025 30.27 854 25.22 9.3 48.8 66 3.3 38
04:45 1025 30.27 854 25.22 9.2 48.6 66 3.3 38
04:50 1025 30.27 854 25.22 9.1 48.4 67 3.4 38.1
04:55 1025 30.27 854 25.22 9 48.1 68 3.5 38.2
05:00 1025 30.27 854 25.22 8.8 47.9 69 3.5 38.3
05:05 1025 30.27 854 25.22 8.9 48 68 3.4 38.1
05:10 1025 30.27 854 25.22 9.1 48.4 68 3.4 38.2
05:15 1025 30.27 855 25.25 9.2 48.6 67 3.4 38.1
05:20 1025 30.27 855 25.25 9.5 49 66 3.5 38.2
05:25 1025 30.27 855 25.25 9.7 49.5 65 3.5 38.4
05:30 1025 30.27 855 25.25 9.8 49.6 65 3.5 38.3
05:35 1025 30.27 855 25.25 10 49.9 64 3.6 38.5
05:40 1025 30.27 855 25.25 10.1 50.1 64 3.6 38.5
05:45 1025 30.27 855 25.25 10.1 50.1 64 3.7 38.6
05:50 1025 30.27 855 25.25 10.3 50.6 63 3.7 38.6
05:55 1025 30.27 855 25.25 10.5 51 63 3.7 38.7
06:00 1025 30.27 855 25.25 10.5 51 63 3.8 38.8
06:05 1026 30.3 855 25.25 10.5 51 63 3.8 38.9
06:10 1026 30.3 855 25.25 10.7 51.2 63 3.8 38.9
06:15 1026 30.3 855 25.25 10.8 51.4 62 3.9 39
06:20 1026 30.3 855 25.25 11 51.8 62 4 39.2
06:25 1026 30.3 855 25.25 11.2 52.1 62 4.1 39.4
06:30 1026 30.3 855 25.25 11.5 52.7 60 4.2 39.5
06:35 1026 30.3 855 25.25 12 53.7 58 4.1 39.4
06:40 1026 30.3 855 25.25 12.3 54.2 57 4 39.2
06:45 1026 30.3 855 25.25 12.6 54.7 56 4 39.3
06:50 1026 30.3 855 25.25 13 55.3 56 4.5 40
06:55 1026 30.3 855 25.25 13.1 55.5 55 4.4 40
07:00 1026 30.3 855 25.25 13.8 56.9 53 4.6 40.2
07:05 1026 30.3 855 25.25 13.8 56.8 54 4.8 40.7
07:10 1026 30.3 855 25.25 13.5 56.4 56 4.9 40.8
07:15 1026 30.3 855 25.25 13.5 56.3 55 4.8 40.6
07:20 1026 30.3 855 25.25 14 57.2 54 4.9 40.9
07:25 1026 30.3 855 25.25 14.2 57.6 53 4.9 40.9
07:30 1026 30.3 855 25.25 14.3 57.7 54 5.1 41.1
07:35 1026 30.3 855 25.25 14.9 58.7 53 5.4 41.8
07:40 1026 30.3 855 25.25 15.2 59.4 51 5.2 41.3
07:45 1026 30.3 855 25.25 15.1 59.2 52 5.6 42
07:50 1026 30.3 855 25.25 15.4 59.6 49 4.8 40.6
07:55 1026 30.3 855 25.25 15.9 60.6 47 4.8 40.6
08:00 1026 30.3 855 25.25 15.2 59.4 48 4.5 40.1
08:05 1026 30.3 855 25.25 15 59 52 5.2 41.4
08:10 1026 30.3 855 25.25 14.9 58.8 51 4.8 40.7
08:15 1026 30.3 855 25.25 15 59 54 5.9 42.6
08:20 1026 30.3 855 25.25 15.5 59.9 50 5.2 41.4
08:25 1026 30.3 855 25.25 15.9 60.6 50 5.6 42.1
08:30 1026 30.3 855 25.25 15.7 60.3 51 5.8 42.5
08:35 1026 30.3 855 25.25 15.8 60.5 49 5.3 41.5
08:40 1026 30.3 855 25.25 16.2 61.2 47 4.9 40.8
08:45 1026 30.3 855 25.25 16.3 61.4 49 5.8 42.4
08:50 1026 30.3 855 25.25 16.1 60.9 49 5.4 41.7
08:55 1026 30.3 855 25.25 17 62.6 46 5.4 41.7
09:00 1026 30.3 855 25.25 16.2 61.1 48 5.4 41.7
09:05 1026 30.3 855 25.25 17 62.6 46 5.5 41.9
09:10 1026 30.3 855 25.25 17 62.6 47 5.8 42.4
09:15 1026 30.3 855 25.25 17.6 63.6 46 6.1 42.9
09:20 1026 30.3 855 25.25 17.2 62.9 47 6 42.7
09:25 1026 30.3 855 25.25 17.6 63.6 44 5.4 41.8
09:30 1026 30.3 855 25.25 17.2 63 48 6.2 43.2
09:35 1026 30.3 855 25.25 16.8 62.2 49 6 42.8
09:40 1026 30.3 855 25.25 17.2 63 46 5.6 42.1
09:45 1026 30.3 855 25.25 18.5 65.4 43 5.9 42.6
09:50 1026 30.3 855 25.25 19.3 66.7 42 6.3 43.3
09:55 1026 30.3 855 25.25 18.5 65.3 44 6.1 43
10:00 1026 30.3 855 25.25 19 66.1 44 6.5 43.7
10:05 1026 30.3 855 25.25 19.2 66.5 42 6.1 43.1
10:10 1026 30.3 855 25.25 18.8 65.8 44 6.3 43.4
10:15 1026 30.3 855 25.25 18.1 64.7 45 6.2 43.1
10:20 1026 30.3 855 25.25 17.8 64 45 5.8 42.4
10:25 1026 30.3 855 25.25 19 66.2 41 5.7 42.2
10:30 1025 30.27 855 25.25 18.8 65.8 44 6.5 43.7
10:35 1025 30.27 855 25.25 18.7 65.7 44 6.2 43.1
10:40 1025 30.27 855 25.25 19 66.2 42 5.8 42.4
10:45 1025 30.27 855 25.25 19.2 66.5 40 5.5 41.9
10:50 1025 30.27 855 25.25 18.5 65.3 42 5.5 41.9
10:55 1025 30.27 855 25.25 18.9 65.9 38 4.4 39.9
11:00 1025 30.27 854 25.22 20.1 68.1 36 4.8 40.6
11:05 1025 30.27 854 25.22 20.9 69.7 32 4 39.2
11:10 1025 30.27 855 25.25 20.8 69.4 35 4.8 40.7
11:15 1025 30.27 854 25.22 21.1 70 34 4.7 40.4
11:20 1025 30.27 854 25.22 20.9 69.6 36 5.4 41.8
11:25 1025 30.27 854 25.22 20.6 69.1 35 5 40.9
11:30 1025 30.27 854 25.22 20.8 69.4 37 5.6 42.1
11:35 1025 30.27 854 25.22 20.8 69.4 33 4 39.2
11:40 1025 30.27 854 25.22 21 69.8 32 3.8 38.9
11:45 1025 30.27 854 25.22 21 69.8 33 4.2 39.5
11:50 1025 30.27 854 25.22 21.1 70 32 4.1 39.4
11:55 1025 30.27 854 25.22 21.1 69.9 31 3.4 38
12:00 1025 30.27 854 25.22 22.3 72.1 30 4 39.3
12:05 1025 30.27 854 25.22 22.6 72.7 30 4.3 39.7
12:10 1025 30.27 854 25.22 21.3 70.4 28 2.2 35.9
12:15 1025 30.27 854 25.22 21.3 70.4 32 3.9 39
12:20 1025 30.27 854 25.22 21.6 70.8 30 3.2 37.8
12:25 1025 30.27 854 25.22 21.8 71.3 29 3.4 38
12:30 1025 30.27 854 25.22 21.6 70.8 30 3.4 38.2
12:35 1025 30.27 854 25.22 21.8 71.2 31 4 39.2
12:40 1025 30.27 854 25.22 22.3 72.1 28 3 37.4
12:45 1025 30.27 854 25.22 22.1 71.8 29 3.5 38.3
12:50 1024 30.24 854 25.22 21.8 71.3 28 2.7 36.8
12:55 1024 30.24 854 25.22 22.4 72.3 25 1.6 34.9
13:00 1024 30.24 854 25.22 22.5 72.4 26 2 35.7
13:05 1024 30.24 853 25.19 22.8 73 23 0.8 33.4
13:10 1024 30.24 853 25.19 23.2 73.7 23 1 33.8
13:15 1024 30.24 853 25.19 23.2 73.7 20 -0.5 31.1
13:20 1024 30.24 853 25.19 22.4 72.3 23 0.5 32.8
13:25 1024 30.24 853 25.19 23.3 73.9 22 0.6 33.2
13:30 1024 30.24 853 25.19 23.5 74.3 22 0.8 33.5
13:35 1024 30.24 853 25.19 23.4 74.1 23 1.1 34
13:40 1024 30.24 853 25.19 23.7 74.7 23 1.3 34.4
13:45 1024 30.24 853 25.19 23.8 74.8 19 -1 30.2
13:50 1024 30.24 853 25.19 24.2 75.6 17 -2.2 28.1
13:55 1024 30.24 853 25.19 25.2 77.4 18 -0.4 31.4
14:00 1024 30.24 853 25.19 24.1 75.4 20 0.2 32.4
14:05 1024 30.24 853 25.19 23.3 74 21 -0.3 31.4
14:10 1024 30.24 853 25.19 23.2 73.8 20 -0.5 31
14:15 1024 30.24 853 25.19 23.4 74.2 19 -1.7 29
14:20 1024 30.24 853 25.19 23.4 74.2 19 -1.3 29.6
14:25 1024 30.24 853 25.19 23.8 74.9 19 -1 30.2
14:30 1024 30.24 853 25.19 23.3 73.9 18 -1.9 28.6
14:35 1024 30.24 853 25.19 23.4 74.2 17 -2.6 27.3
14:40 1024 30.24 853 25.19 23.8 74.8 16 -3.7 25.3
14:45 1024 30.24 853 25.19 24.1 75.3 16 -3.3 26.1
14:50 1024 30.24 853 25.19 24.1 75.3 15 -3.6 25.5
14:55 1024 30.24 853 25.19 24.7 76.5 16 -2.8 27
15:00 1024 30.24 853 25.19 25.1 77.1 17 -1.6 29
15:05 1024 30.24 853 25.19 24.8 76.6 17 -1.5 29.3
15:10 1024 30.24 853 25.19 24.9 76.7 17 -2 28.4
15:15 1024 30.24 853 25.19 24.8 76.6 15 -3.2 26.3
15:20 1024 30.24 853 25.19 25.2 77.3 17 -1.7 29
15:25 1024 30.24 853 25.19 25.7 78.3 16 -2.1 28.2
15:30 1024 30.24 853 25.19 25.6 78.1 16 -2.2 28
15:35 1024 30.24 853 25.19 25.8 78.4 15 -2.7 27.1
15:40 1024 30.24 853 25.19 25.6 78.2 15 -2.3 27.8
15:45 1024 30.24 853 25.19 25.7 78.2 15 -2.3 27.9
15:50 1024 30.24 853 25.19 25.5 77.8 15 -2.7 27.2
15:55 1024 30.24 853 25.19 25.3 77.6 16 -2.4 27.6
16:00 1024 30.24 853 25.19 25.5 77.9 16 -2.3 27.8
16:05 1024 30.24 853 25.19 25.5 77.8 16 -2.3 27.9
16:10 1024 30.24 853 25.19 25.2 77.4 15 -3 26.7
16:15 1023 30.21 853 25.19 25.4 77.8 15 -2.5 27.5
16:20 1023 30.21 853 25.19 25.2 77.3 15 -2.8 27
16:25 1023 30.21 853 25.19 24.3 75.8 16 -2.6 27.3
16:30 1023 30.21 853 25.19 25 77 15 -3.1 26.5
16:35 1023 30.21 853 25.19 24.8 76.6 17 -1.9 28.5
16:40 1023 30.21 853 25.19 25.4 77.6 15 -2.7 27.1
16:45 1023 30.21 852 25.16 25.5 77.9 15 -2.4 27.7
16:50 1023 30.21 852 25.16 25.4 77.7 15 -2.5 27.6
16:55 1023 30.21 852 25.16 24.6 76.3 16 -2.7 27.1
17:00 1023 30.21 852 25.16 24.9 76.8 16 -2.1 28.2
17:05 1023 30.21 852 25.16 25.8 78.4 17 -1.2 29.9
17:10 1023 30.21 852 25.16 25.9 78.7 16 -1.2 29.9
17:15 1023 30.21 852 25.16 25.5 77.9 17 -1.2 29.8
17:20 1023 30.21 852 25.16 24.6 76.2 18 -1.4 29.5
17:25 1023 30.21 852 25.16 24.1 75.4 18 -1.7 29
17:30 1023 30.21 852 25.16 24.3 75.7 17 -2.1 28.2
17:35 1023 30.21 852 25.16 24.1 75.3 21 0.7 33.3
17:40 1023 30.21 852 25.16 23.7 74.6 22 0.6 33.1
17:45 1023 30.21 852 25.16 23.5 74.4 23 1.2 34.1
17:50 1023 30.21 852 25.16 23.2 73.8 23 1.4 34.6
17:55 1023 30.21 852 25.16 23.1 73.6 25 2 35.7
18:00 1023 30.21 852 25.16 22.8 73.1 25 2 35.6
18:05 1023 30.21 852 25.16 22.6 72.6 26 2.6 36.6
18:10 1023 30.21 852 25.16 22.3 72.2 27 2.7 36.8
18:15 1023 30.21 852 25.16 22.2 71.9 28 3 37.5
18:20 1023 30.21 852 25.16 22.1 71.8 27 2.6 36.7
18:25 1023 30.21 852 25.16 22 71.6 27 2.5 36.5
18:30 1023 30.21 852 25.16 21.8 71.2 28 2.5 36.5
18:35 1023 30.21 852 25.16 21.6 70.9 27 2.2 35.9
18:40 1023 30.21 852 25.16 21.5 70.7 27 1.8 35.2
18:45 1023 30.21 852 25.16 21.4 70.4 27 1.9 35.4
18:50 1023 30.21 852 25.16 21.2 70.2 28 2.1 35.7
18:55 1023 30.21 852 25.16 21.1 69.9 27 1.7 35.1
19:00 1023 30.21 852 25.16 20.9 69.6 28 1.7 35.1
19:05 1023 30.21 852 25.16 20.8 69.5 28 1.8 35.3
19:10 1023 30.21 852 25.16 20.7 69.2 28 1.9 35.5
19:15 1023 30.21 852 25.16 20.6 69 29 2 35.6
19:20 1023 30.21 852 25.16 20.5 68.8 29 2.1 35.7
19:25 1023 30.21 852 25.16 20.3 68.6 30 2.3 36.1
19:30 1023 30.21 852 25.16 20.2 68.3 30 2.1 35.7
19:35 1023 30.21 852 25.16 20 68 31 2.3 36.2
19:40 1023 30.21 852 25.16 19.9 67.8 31 2.4 36.4
19:45 1023 30.21 852 25.16 19.7 67.5 32 2.5 36.5
19:50 1023 30.21 852 25.16 19.5 67.2 32 2.6 36.6
19:55 1023 30.21 852 25.16 19.4 66.9 33 2.8 37
20:00 1023 30.21 852 25.16 19.1 66.5 34 2.9 37.2
20:05 1023 30.21 852 25.16 19 66.1 35 3.1 37.6
20:10 1023 30.21 852 25.16 18.8 65.8 35 3.3 37.9
20:15 1023 30.21 852 25.16 18.6 65.5 36 3.3 38
20:20 1023 30.21 852 25.16 18.4 65.1 37 3.7 38.7
20:25 1023 30.21 852 25.16 18.1 64.7 38 3.8 38.9
20:30 1023 30.21 852 25.16 17.9 64.2 39 3.9 39
20:35 1023 30.21 852 25.16 17.7 63.9 39 3.9 39
20:40 1023 30.21 852 25.16 17.6 63.7 40 4 39.2
20:45 1023 30.21 852 25.16 17.5 63.4 40 4 39.1
20:50 1023 30.21 852 25.16 17.4 63.4 41 4 39.2
20:55 1023 30.21 852 25.16 17.5 63.4 41 4.2 39.5
21:00 1023 30.21 852 25.16 17.4 63.3 42 4.3 39.8
21:05 1023 30.21 852 25.16 17.2 63 42 4.3 39.8
21:10 1023 30.21 852 25.16 17.2 62.9 43 4.6 40.2
21:15 1023 30.21 852 25.16 17.1 62.7 43 4.5 40.2
21:20 1023 30.21 852 25.16 17 62.7 43 4.5 40.1
21:25 1023 30.21 852 25.16 17 62.6 44 4.7 40.5
21:30 1023 30.21 852 25.16 17 62.6 43 4.6 40.2
21:35 1023 30.21 852 25.16 17.1 62.7 43 4.6 40.2
21:40 1023 30.21 852 25.16 17 62.5 44 4.7 40.5
21:45 1023 30.21 852 25.16 16.9 62.3 44 4.7 40.4
21:50 1023 30.21 852 25.16 16.8 62.2 45 4.8 40.7
21:55 1023 30.21 852 25.16 16.7 62 45 4.9 40.8
22:00 1023 30.21 852 25.16 16.7 62 45 4.9 40.8
22:05 1023 30.21 852 25.16 16.6 62 46 5 41.1
22:10 1023 30.21 852 25.16 16.5 61.8 46 5.1 41.2
22:15 1023 30.21 852 25.16 16.5 61.7 46 5 40.9
22:20 1023 30.21 852 25.16 16.5 61.7 46 5.1 41.1
22:25 1023 30.21 852 25.16 16.4 61.4 47 5.2 41.4
22:30 1023 30.21 852 25.16 16.4 61.5 46 4.9 40.8
22:35 1023 30.21 852 25.16 16.3 61.3 48 5.2 41.4
22:40 1023 30.21 852 25.16 16.2 61.1 48 5.3 41.5
22:45 1023 30.21 852 25.16 16 60.9 49 5.4 41.8
22:50 1023 30.21 852 25.16 16 60.7 49 5.4 41.8
22:55 1023 30.21 852 25.16 15.9 60.7 50 5.5 41.9
23:00 1023 30.21 852 25.16 16 60.8 49 5.4 41.8
23:05 1023 30.21 852 25.16 16 60.9 49 5.4 41.7
23:10 1023 30.21 852 25.16 16 60.7 50 5.5 42
23:15 1023 30.21 852 25.16 15.9 60.5 50 5.6 42.2
23:20 1023 30.21 852 25.16 15.8 60.4 50 5.4 41.7
23:25 1023 30.21 852 25.16 15.8 60.5 50 5.6 42
23:30 1023 30.21 852 25.16 15.7 60.3 51 5.6 42.1
23:35 1023 30.21 852 25.16 15.8 60.4 50 5.5 41.9
23:40 1023 30.21 852 25.16 15.7 60.3 51 5.7 42.3
23:45 1023 30.21 852 25.16 15.5 60 52 5.7 42.3
23:50 1023 30.21 852 25.16 15.4 59.7 51 5.5 42
23:55 1023 30.21 852 25.16 15.4 59.8 52 5.7 42.3
24:00 1023 30.21 852 25.16 15.4 59.7 52 5.6 42.1